sensor_id;sensor_type;location;lat;lon;timestamp;temperature;humidity
10678;DHT22;5387;48.722;9.110;2022-10-16T00:01:39;14.90;99.90
10678;DHT22;5387;48.722;9.110;2022-10-16T00:04:06;14.90;99.90
10678;DHT22;5387;48.722;9.110;2022-10-16T00:06:32;14.90;99.90
10678;DHT22;5387;48.722;9.110;2022-10-16T00:09:00;14.90;99.90
10678;DHT22;5387;48.722;9.110;2022-10-16T00:11:28;14.90;99.90
10678;DHT22;5387;48.722;9.110;2022-10-16T00:13:58;14.90;99.90
10678;DHT22;5387;48.722;9.110;2022-10-16T00:16:26;14.90;99.90
10678;DHT22;5387;48.722;9.110;2022-10-16T00:18:53;14.80;99.90
10678;DHT22;5387;48.722;9.110;2022-10-16T00:21:21;14.70;99.90
10678;DHT22;5387;48.722;9.110;2022-10-16T00:23:50;14.60;99.90
10678;DHT22;5387;48.722;9.110;2022-10-16T00:26:18;14.60;99.90
10678;DHT22;5387;48.722;9.110;2022-10-16T00:28:46;14.50;99.90
10678;DHT22;5387;48.722;9.110;2022-10-16T00:31:15;14.60;99.90
10678;DHT22;5387;48.722;9.110;2022-10-16T00:33:42;14.40;99.90
10678;DHT22;5387;48.722;9.110;2022-10-16T00:36:13;14.50;99.90
10678;DHT22;5387;48.722;9.110;2022-10-16T00:38:40;14.40;99.90
10678;DHT22;5387;48.722;9.110;2022-10-16T00:41:11;14.40;99.90
10678;DHT22;5387;48.722;9.110;2022-10-16T00:43:41;14.40;99.90
10678;DHT22;5387;48.722;9.110;2022-10-16T00:46:15;14.40;99.90
10678;DHT22;5387;48.722;9.110;2022-10-16T00:48:45;14.40;99.90
10678;DHT22;5387;48.722;9.110;2022-10-16T00:51:13;14.30;99.90
10678;DHT22;5387;48.722;9.110;2022-10-16T00:53:41;14.40;99.90
10678;DHT22;5387;48.722;9.110;2022-10-16T00:56:07;14.30;99.90
10678;DHT22;5387;48.722;9.110;2022-10-16T00:58:34;14.30;99.90
10678;DHT22;5387;48.722;9.110;2022-10-16T01:01:01;14.10;99.90
10678;DHT22;5387;48.722;9.110;2022-10-16T01:03:32;14.10;99.90
10678;DHT22;5387;48.722;9.110;2022-10-16T01:06:08;14.40;99.90
10678;DHT22;5387;48.722;9.110;2022-10-16T01:08:53;14.30;99.90
10678;DHT22;5387;48.722;9.110;2022-10-16T01:11:27;14.40;99.90
10678;DHT22;5387;48.722;9.110;2022-10-16T01:14:02;14.40;99.90
10678;DHT22;5387;48.722;9.110;2022-10-16T01:16:36;14.50;99.90
10678;DHT22;5387;48.722;9.110;2022-10-16T01:19:12;14.30;99.90
10678;DHT22;5387;48.722;9.110;2022-10-16T01:21:42;14.30;99.90
10678;DHT22;5387;48.722;9.110;2022-10-16T01:24:16;14.40;99.90
10678;DHT22;5387;48.722;9.110;2022-10-16T01:29:48;14.10;99.90
10678;DHT22;5387;48.722;9.110;2022-10-16T01:32:20;14.10;99.90
10678;DHT22;5387;48.722;9.110;2022-10-16T01:34:51;14.00;99.90
10678;DHT22;5387;48.722;9.110;2022-10-16T01:37:25;14.00;99.90
10678;DHT22;5387;48.722;9.110;2022-10-16T01:39:58;13.80;99.90
10678;DHT22;5387;48.722;9.110;2022-10-16T01:42:30;14.00;99.90
10678;DHT22;5387;48.722;9.110;2022-10-16T01:45:02;14.00;99.90
10678;DHT22;5387;48.722;9.110;2022-10-16T01:47:32;14.10;99.90
10678;DHT22;5387;48.722;9.110;2022-10-16T01:50:00;14.10;99.90
10678;DHT22;5387;48.722;9.110;2022-10-16T01:52:32;14.20;99.90
10678;DHT22;5387;48.722;9.110;2022-10-16T01:55:00;14.20;99.90
10678;DHT22;5387;48.722;9.110;2022-10-16T01:57:30;14.30;99.90
10678;DHT22;5387;48.722;9.110;2022-10-16T02:00:04;14.30;99.90
10678;DHT22;5387;48.722;9.110;2022-10-16T02:02:32;14.20;99.90
10678;DHT22;5387;48.722;9.110;2022-10-16T02:05:05;14.30;99.90
10678;DHT22;5387;48.722;9.110;2022-10-16T02:07:35;14.30;99.90
10678;DHT22;5387;48.722;9.110;2022-10-16T02:10:02;14.30;99.90
10678;DHT22;5387;48.722;9.110;2022-10-16T02:12:31;14.40;99.90
10678;DHT22;5387;48.722;9.110;2022-10-16T02:15:00;14.30;99.90
10678;DHT22;5387;48.722;9.110;2022-10-16T02:17:28;14.50;99.90
10678;DHT22;5387;48.722;9.110;2022-10-16T02:19:56;14.40;99.90
10678;DHT22;5387;48.722;9.110;2022-10-16T02:22:27;14.50;99.90
10678;DHT22;5387;48.722;9.110;2022-10-16T02:24:57;14.30;99.90
10678;DHT22;5387;48.722;9.110;2022-10-16T02:27:27;14.50;99.90
10678;DHT22;5387;48.722;9.110;2022-10-16T02:30:03;14.50;99.90
10678;DHT22;5387;48.722;9.110;2022-10-16T02:32:37;14.50;99.90
10678;DHT22;5387;48.722;9.110;2022-10-16T02:35:06;14.50;99.90
10678;DHT22;5387;48.722;9.110;2022-10-16T02:37:34;14.50;99.90
10678;DHT22;5387;48.722;9.110;2022-10-16T02:40:01;14.50;99.90
10678;DHT22;5387;48.722;9.110;2022-10-16T02:42:34;14.40;99.90
10678;DHT22;5387;48.722;9.110;2022-10-16T02:45:01;14.40;99.90
10678;DHT22;5387;48.722;9.110;2022-10-16T02:47:29;14.30;99.90
10678;DHT22;5387;48.722;9.110;2022-10-16T02:49:57;14.40;99.90
10678;DHT22;5387;48.722;9.110;2022-10-16T02:52:24;14.30;99.90
10678;DHT22;5387;48.722;9.110;2022-10-16T02:54:51;14.30;99.90
10678;DHT22;5387;48.722;9.110;2022-10-16T02:57:18;14.30;99.90
10678;DHT22;5387;48.722;9.110;2022-10-16T02:59:45;14.20;99.90
10678;DHT22;5387;48.722;9.110;2022-10-16T03:02:11;14.20;99.90
10678;DHT22;5387;48.722;9.110;2022-10-16T03:04:38;14.20;99.90
10678;DHT22;5387;48.722;9.110;2022-10-16T03:07:06;14.30;99.90
10678;DHT22;5387;48.722;9.110;2022-10-16T03:09:34;14.30;99.90
10678;DHT22;5387;48.722;9.110;2022-10-16T03:12:00;14.20;99.90
10678;DHT22;5387;48.722;9.110;2022-10-16T03:14:27;14.30;99.90
10678;DHT22;5387;48.722;9.110;2022-10-16T03:16:54;14.30;99.90
10678;DHT22;5387;48.722;9.110;2022-10-16T03:19:21;14.50;99.90
10678;DHT22;5387;48.722;9.110;2022-10-16T03:21:47;14.40;99.90
10678;DHT22;5387;48.722;9.110;2022-10-16T03:24:16;14.40;99.90
10678;DHT22;5387;48.722;9.110;2022-10-16T03:26:42;14.50;99.90
10678;DHT22;5387;48.722;9.110;2022-10-16T03:29:09;14.50;99.90
10678;DHT22;5387;48.722;9.110;2022-10-16T03:31:36;14.50;99.90
10678;DHT22;5387;48.722;9.110;2022-10-16T03:34:03;14.40;99.90
10678;DHT22;5387;48.722;9.110;2022-10-16T03:36:30;14.30;99.90
10678;DHT22;5387;48.722;9.110;2022-10-16T03:38:56;14.30;99.90
10678;DHT22;5387;48.722;9.110;2022-10-16T03:41:24;14.20;99.90
10678;DHT22;5387;48.722;9.110;2022-10-16T03:43:51;14.20;99.90
10678;DHT22;5387;48.722;9.110;2022-10-16T03:46:18;14.20;99.90
10678;DHT22;5387;48.722;9.110;2022-10-16T03:48:45;14.40;99.90
10678;DHT22;5387;48.722;9.110;2022-10-16T03:51:11;14.10;99.90
10678;DHT22;5387;48.722;9.110;2022-10-16T03:53:38;14.20;99.90
10678;DHT22;5387;48.722;9.110;2022-10-16T03:56:06;14.20;99.90
10678;DHT22;5387;48.722;9.110;2022-10-16T03:58:34;14.20;99.90
10678;DHT22;5387;48.722;9.110;2022-10-16T04:01:01;14.20;99.90
10678;DHT22;5387;48.722;9.110;2022-10-16T04:03:27;14.10;99.90
10678;DHT22;5387;48.722;9.110;2022-10-16T04:05:54;14.10;99.90
10678;DHT22;5387;48.722;9.110;2022-10-16T04:08:22;14.20;99.90
10678;DHT22;5387;48.722;9.110;2022-10-16T04:10:49;14.20;99.90
10678;DHT22;5387;48.722;9.110;2022-10-16T04:13:16;14.10;99.90
10678;DHT22;5387;48.722;9.110;2022-10-16T04:15:44;14.30;99.90
10678;DHT22;5387;48.722;9.110;2022-10-16T04:18:11;14.40;99.90
10678;DHT22;5387;48.722;9.110;2022-10-16T04:20:38;14.50;99.90
10678;DHT22;5387;48.722;9.110;2022-10-16T04:23:05;14.50;99.90
10678;DHT22;5387;48.722;9.110;2022-10-16T04:25:32;14.50;99.90
10678;DHT22;5387;48.722;9.110;2022-10-16T04:27:59;14.50;99.90
10678;DHT22;5387;48.722;9.110;2022-10-16T04:30:26;14.30;99.90
10678;DHT22;5387;48.722;9.110;2022-10-16T04:32:54;14.50;99.90
10678;DHT22;5387;48.722;9.110;2022-10-16T04:35:21;14.50;99.90
10678;DHT22;5387;48.722;9.110;2022-10-16T04:37:48;14.50;99.90
10678;DHT22;5387;48.722;9.110;2022-10-16T04:40:16;14.50;99.90
10678;DHT22;5387;48.722;9.110;2022-10-16T04:42:43;14.60;99.90
10678;DHT22;5387;48.722;9.110;2022-10-16T04:45:10;14.70;99.90
10678;DHT22;5387;48.722;9.110;2022-10-16T04:47:37;14.80;99.90
10678;DHT22;5387;48.722;9.110;2022-10-16T04:50:05;14.80;99.90
10678;DHT22;5387;48.722;9.110;2022-10-16T04:52:32;14.80;99.90
10678;DHT22;5387;48.722;9.110;2022-10-16T04:54:59;14.90;99.90
10678;DHT22;5387;48.722;9.110;2022-10-16T04:57:28;15.10;99.90
10678;DHT22;5387;48.722;9.110;2022-10-16T04:59:55;14.90;99.90
10678;DHT22;5387;48.722;9.110;2022-10-16T05:02:22;14.90;99.90
10678;DHT22;5387;48.722;9.110;2022-10-16T05:04:49;14.90;99.90
10678;DHT22;5387;48.722;9.110;2022-10-16T05:07:17;14.90;99.90
10678;DHT22;5387;48.722;9.110;2022-10-16T05:09:44;14.90;99.90
10678;DHT22;5387;48.722;9.110;2022-10-16T05:12:11;14.90;99.90
10678;DHT22;5387;48.722;9.110;2022-10-16T05:14:37;14.90;99.90
10678;DHT22;5387;48.722;9.110;2022-10-16T05:17:04;14.90;99.90
10678;DHT22;5387;48.722;9.110;2022-10-16T05:19:31;14.90;99.90
10678;DHT22;5387;48.722;9.110;2022-10-16T05:21:58;14.90;99.90
10678;DHT22;5387;48.722;9.110;2022-10-16T05:24:26;14.90;99.90
10678;DHT22;5387;48.722;9.110;2022-10-16T05:26:53;14.90;99.90
10678;DHT22;5387;48.722;9.110;2022-10-16T05:29:20;14.90;99.90
10678;DHT22;5387;48.722;9.110;2022-10-16T05:31:50;14.80;99.90
10678;DHT22;5387;48.722;9.110;2022-10-16T05:34:17;14.80;99.90
10678;DHT22;5387;48.722;9.110;2022-10-16T05:36:43;14.70;99.90
10678;DHT22;5387;48.722;9.110;2022-10-16T05:39:11;14.70;99.90
10678;DHT22;5387;48.722;9.110;2022-10-16T05:41:39;14.70;99.90
10678;DHT22;5387;48.722;9.110;2022-10-16T05:44:06;14.60;99.90
10678;DHT22;5387;48.722;9.110;2022-10-16T05:46:33;14.60;99.90
10678;DHT22;5387;48.722;9.110;2022-10-16T05:49:00;14.80;99.90
10678;DHT22;5387;48.722;9.110;2022-10-16T05:51:26;14.50;99.90
10678;DHT22;5387;48.722;9.110;2022-10-16T05:53:53;14.70;99.90
10678;DHT22;5387;48.722;9.110;2022-10-16T05:56:20;14.60;99.90
10678;DHT22;5387;48.722;9.110;2022-10-16T05:58:48;14.70;99.90
10678;DHT22;5387;48.722;9.110;2022-10-16T06:01:17;14.60;99.90
10678;DHT22;5387;48.722;9.110;2022-10-16T06:03:44;14.70;99.90
10678;DHT22;5387;48.722;9.110;2022-10-16T06:06:12;14.70;99.90
10678;DHT22;5387;48.722;9.110;2022-10-16T06:08:40;14.70;99.90
10678;DHT22;5387;48.722;9.110;2022-10-16T06:11:09;14.70;99.90
10678;DHT22;5387;48.722;9.110;2022-10-16T06:13:36;14.70;99.90
10678;DHT22;5387;48.722;9.110;2022-10-16T06:16:06;14.70;99.90
10678;DHT22;5387;48.722;9.110;2022-10-16T06:18:33;14.80;99.90
10678;DHT22;5387;48.722;9.110;2022-10-16T06:21:06;14.70;99.90
10678;DHT22;5387;48.722;9.110;2022-10-16T06:23:33;14.70;99.90
10678;DHT22;5387;48.722;9.110;2022-10-16T06:26:05;14.90;99.90
10678;DHT22;5387;48.722;9.110;2022-10-16T06:28:31;14.80;99.90
10678;DHT22;5387;48.722;9.110;2022-10-16T06:30:59;15.00;99.90
10678;DHT22;5387;48.722;9.110;2022-10-16T06:33:27;14.90;99.90
10678;DHT22;5387;48.722;9.110;2022-10-16T06:35:59;15.00;99.90
10678;DHT22;5387;48.722;9.110;2022-10-16T06:38:26;14.90;99.90
10678;DHT22;5387;48.722;9.110;2022-10-16T06:40:53;15.10;99.90
10678;DHT22;5387;48.722;9.110;2022-10-16T06:43:20;15.20;99.90
10678;DHT22;5387;48.722;9.110;2022-10-16T06:45:50;15.30;99.90
10678;DHT22;5387;48.722;9.110;2022-10-16T06:48:17;15.30;99.90
10678;DHT22;5387;48.722;9.110;2022-10-16T06:50:55;15.60;99.90
10678;DHT22;5387;48.722;9.110;2022-10-16T06:53:21;15.60;99.90
10678;DHT22;5387;48.722;9.110;2022-10-16T06:55:48;15.60;99.90
10678;DHT22;5387;48.722;9.110;2022-10-16T06:58:15;15.60;99.90
10678;DHT22;5387;48.722;9.110;2022-10-16T07:00:42;15.60;99.90
10678;DHT22;5387;48.722;9.110;2022-10-16T07:03:09;15.70;99.90
10678;DHT22;5387;48.722;9.110;2022-10-16T07:05:37;15.80;99.90
10678;DHT22;5387;48.722;9.110;2022-10-16T07:08:06;16.10;99.90
10678;DHT22;5387;48.722;9.110;2022-10-16T07:10:33;15.90;99.90
10678;DHT22;5387;48.722;9.110;2022-10-16T07:13:00;16.10;99.90
10678;DHT22;5387;48.722;9.110;2022-10-16T07:15:27;16.10;99.90
10678;DHT22;5387;48.722;9.110;2022-10-16T07:17:54;16.20;99.90
10678;DHT22;5387;48.722;9.110;2022-10-16T07:20:21;16.20;99.90
10678;DHT22;5387;48.722;9.110;2022-10-16T07:22:48;16.30;99.90
10678;DHT22;5387;48.722;9.110;2022-10-16T07:25:16;16.30;99.90
10678;DHT22;5387;48.722;9.110;2022-10-16T07:27:43;16.20;99.90
10678;DHT22;5387;48.722;9.110;2022-10-16T07:30:10;16.20;99.90
10678;DHT22;5387;48.722;9.110;2022-10-16T07:32:37;16.20;99.90
10678;DHT22;5387;48.722;9.110;2022-10-16T07:35:04;16.20;99.90
10678;DHT22;5387;48.722;9.110;2022-10-16T07:37:31;16.30;99.90
10678;DHT22;5387;48.722;9.110;2022-10-16T07:39:58;16.20;99.90
10678;DHT22;5387;48.722;9.110;2022-10-16T07:42:27;16.30;99.90
10678;DHT22;5387;48.722;9.110;2022-10-16T07:44:54;16.30;99.90
10678;DHT22;5387;48.722;9.110;2022-10-16T07:47:20;16.40;99.90
10678;DHT22;5387;48.722;9.110;2022-10-16T07:49:47;16.30;99.90
10678;DHT22;5387;48.722;9.110;2022-10-16T07:52:14;16.30;99.90
10678;DHT22;5387;48.722;9.110;2022-10-16T07:54:41;16.20;99.90
10678;DHT22;5387;48.722;9.110;2022-10-16T07:57:07;16.30;99.90
10678;DHT22;5387;48.722;9.110;2022-10-16T07:59:36;16.40;99.90
10678;DHT22;5387;48.722;9.110;2022-10-16T08:02:02;16.40;99.90
10678;DHT22;5387;48.722;9.110;2022-10-16T08:04:29;16.50;99.90
10678;DHT22;5387;48.722;9.110;2022-10-16T08:06:56;16.50;99.90
10678;DHT22;5387;48.722;9.110;2022-10-16T08:09:23;16.70;99.90
10678;DHT22;5387;48.722;9.110;2022-10-16T08:11:49;16.70;99.90
10678;DHT22;5387;48.722;9.110;2022-10-16T08:14:18;16.80;99.90
10678;DHT22;5387;48.722;9.110;2022-10-16T08:16:46;17.00;99.90
10678;DHT22;5387;48.722;9.110;2022-10-16T08:19:13;17.20;99.90
10678;DHT22;5387;48.722;9.110;2022-10-16T08:21:41;17.20;99.90
10678;DHT22;5387;48.722;9.110;2022-10-16T08:24:07;17.20;99.90
10678;DHT22;5387;48.722;9.110;2022-10-16T08:26:34;17.20;99.90
10678;DHT22;5387;48.722;9.110;2022-10-16T08:29:01;17.10;99.90
10678;DHT22;5387;48.722;9.110;2022-10-16T08:31:28;17.20;99.90
10678;DHT22;5387;48.722;9.110;2022-10-16T08:33:56;17.40;99.90
10678;DHT22;5387;48.722;9.110;2022-10-16T08:36:23;17.40;99.90
10678;DHT22;5387;48.722;9.110;2022-10-16T08:38:50;17.60;99.90
10678;DHT22;5387;48.722;9.110;2022-10-16T08:41:54;17.70;99.90
10678;DHT22;5387;48.722;9.110;2022-10-16T08:44:45;17.70;99.90
10678;DHT22;5387;48.722;9.110;2022-10-16T08:47:18;17.70;99.90
10678;DHT22;5387;48.722;9.110;2022-10-16T08:49:54;17.70;99.90
10678;DHT22;5387;48.722;9.110;2022-10-16T08:52:22;17.60;99.90
10678;DHT22;5387;48.722;9.110;2022-10-16T08:54:54;17.50;99.90
10678;DHT22;5387;48.722;9.110;2022-10-16T08:57:24;17.50;99.90
10678;DHT22;5387;48.722;9.110;2022-10-16T08:59:51;17.60;99.90
10678;DHT22;5387;48.722;9.110;2022-10-16T09:02:25;17.80;99.90
10678;DHT22;5387;48.722;9.110;2022-10-16T09:05:02;17.90;99.90
10678;DHT22;5387;48.722;9.110;2022-10-16T09:07:35;18.10;99.90
10678;DHT22;5387;48.722;9.110;2022-10-16T09:10:15;18.00;99.90
10678;DHT22;5387;48.722;9.110;2022-10-16T09:12:52;18.20;99.90
10678;DHT22;5387;48.722;9.110;2022-10-16T09:15:29;18.40;99.90
10678;DHT22;5387;48.722;9.110;2022-10-16T09:18:05;18.50;99.90
10678;DHT22;5387;48.722;9.110;2022-10-16T09:20:53;18.30;99.90
10678;DHT22;5387;48.722;9.110;2022-10-16T09:23:26;18.70;99.90
10678;DHT22;5387;48.722;9.110;2022-10-16T09:25:54;18.70;99.90
10678;DHT22;5387;48.722;9.110;2022-10-16T09:28:21;18.60;99.90
10678;DHT22;5387;48.722;9.110;2022-10-16T09:30:49;18.60;99.90
10678;DHT22;5387;48.722;9.110;2022-10-16T09:33:17;18.90;99.90
10678;DHT22;5387;48.722;9.110;2022-10-16T09:35:48;19.10;99.90
10678;DHT22;5387;48.722;9.110;2022-10-16T09:38:24;19.40;99.90
10678;DHT22;5387;48.722;9.110;2022-10-16T09:40:51;19.40;99.90
10678;DHT22;5387;48.722;9.110;2022-10-16T09:43:22;19.40;99.90
10678;DHT22;5387;48.722;9.110;2022-10-16T09:45:55;19.20;99.90
10678;DHT22;5387;48.722;9.110;2022-10-16T09:48:23;19.40;99.90
10678;DHT22;5387;48.722;9.110;2022-10-16T09:50:59;19.70;99.90
10678;DHT22;5387;48.722;9.110;2022-10-16T09:53:40;20.10;99.90
10678;DHT22;5387;48.722;9.110;2022-10-16T09:56:07;20.20;99.90
10678;DHT22;5387;48.722;9.110;2022-10-16T09:58:41;20.30;99.90
10678;DHT22;5387;48.722;9.110;2022-10-16T10:01:13;20.20;99.90
10678;DHT22;5387;48.722;9.110;2022-10-16T10:03:41;20.30;99.90
10678;DHT22;5387;48.722;9.110;2022-10-16T10:06:18;20.20;99.90
10678;DHT22;5387;48.722;9.110;2022-10-16T10:09:15;20.50;99.90
10678;DHT22;5387;48.722;9.110;2022-10-16T10:11:51;21.00;99.90
10678;DHT22;5387;48.722;9.110;2022-10-16T10:14:22;21.00;99.90
10678;DHT22;5387;48.722;9.110;2022-10-16T10:16:49;21.20;99.90
10678;DHT22;5387;48.722;9.110;2022-10-16T10:19:18;21.40;99.90
10678;DHT22;5387;48.722;9.110;2022-10-16T10:21:48;21.60;99.90
10678;DHT22;5387;48.722;9.110;2022-10-16T10:24:18;21.50;99.90
10678;DHT22;5387;48.722;9.110;2022-10-16T10:26:50;21.30;99.90
10678;DHT22;5387;48.722;9.110;2022-10-16T10:29:29;21.40;99.90
10678;DHT22;5387;48.722;9.110;2022-10-16T10:32:05;21.30;99.90
10678;DHT22;5387;48.722;9.110;2022-10-16T10:34:44;21.60;99.90
10678;DHT22;5387;48.722;9.110;2022-10-16T10:37:31;21.70;99.90
10678;DHT22;5387;48.722;9.110;2022-10-16T10:40:08;21.60;99.90
10678;DHT22;5387;48.722;9.110;2022-10-16T10:42:42;21.50;99.90
10678;DHT22;5387;48.722;9.110;2022-10-16T10:45:17;21.60;99.90
10678;DHT22;5387;48.722;9.110;2022-10-16T10:47:57;21.50;99.90
10678;DHT22;5387;48.722;9.110;2022-10-16T10:50:32;21.70;99.90
10678;DHT22;5387;48.722;9.110;2022-10-16T10:53:09;21.80;99.90
10678;DHT22;5387;48.722;9.110;2022-10-16T10:55:42;21.80;99.90
10678;DHT22;5387;48.722;9.110;2022-10-16T11:01:16;22.00;99.90
10678;DHT22;5387;48.722;9.110;2022-10-16T11:04:11;22.20;99.90
10678;DHT22;5387;48.722;9.110;2022-10-16T11:06:44;22.90;99.90
10678;DHT22;5387;48.722;9.110;2022-10-16T11:09:17;23.00;99.90
10678;DHT22;5387;48.722;9.110;2022-10-16T11:11:48;23.00;99.90
10678;DHT22;5387;48.722;9.110;2022-10-16T11:14:19;23.00;99.90
10678;DHT22;5387;48.722;9.110;2022-10-16T11:16:51;22.70;99.90
10678;DHT22;5387;48.722;9.110;2022-10-16T11:19:28;22.50;99.90
10678;DHT22;5387;48.722;9.110;2022-10-16T11:22:02;22.60;99.90
10678;DHT22;5387;48.722;9.110;2022-10-16T11:24:39;22.50;99.90
10678;DHT22;5387;48.722;9.110;2022-10-16T11:27:09;22.20;99.90
10678;DHT22;5387;48.722;9.110;2022-10-16T11:29:45;22.00;99.90
10678;DHT22;5387;48.722;9.110;2022-10-16T11:32:20;22.20;99.90
10678;DHT22;5387;48.722;9.110;2022-10-16T11:34:51;22.40;99.90
10678;DHT22;5387;48.722;9.110;2022-10-16T11:37:21;22.70;99.90
10678;DHT22;5387;48.722;9.110;2022-10-16T11:39:54;23.00;99.90
10678;DHT22;5387;48.722;9.110;2022-10-16T11:42:30;23.20;99.90
10678;DHT22;5387;48.722;9.110;2022-10-16T11:45:03;23.50;99.90
10678;DHT22;5387;48.722;9.110;2022-10-16T11:47:36;23.60;99.90
10678;DHT22;5387;48.722;9.110;2022-10-16T11:50:13;23.70;99.90
10678;DHT22;5387;48.722;9.110;2022-10-16T11:52:49;23.70;99.90
10678;DHT22;5387;48.722;9.110;2022-10-16T11:55:22;23.70;99.90
10678;DHT22;5387;48.722;9.110;2022-10-16T11:57:51;23.90;99.90
10678;DHT22;5387;48.722;9.110;2022-10-16T12:00:23;24.00;99.90
10678;DHT22;5387;48.722;9.110;2022-10-16T12:02:59;24.20;99.90
10678;DHT22;5387;48.722;9.110;2022-10-16T12:05:35;24.40;99.90
10678;DHT22;5387;48.722;9.110;2022-10-16T12:08:10;24.20;99.90
10678;DHT22;5387;48.722;9.110;2022-10-16T12:10:40;24.30;99.90
10678;DHT22;5387;48.722;9.110;2022-10-16T12:13:29;24.20;99.90
10678;DHT22;5387;48.722;9.110;2022-10-16T12:16:05;24.50;99.90
10678;DHT22;5387;48.722;9.110;2022-10-16T12:18:32;24.50;99.90
10678;DHT22;5387;48.722;9.110;2022-10-16T12:20:59;24.60;99.90
10678;DHT22;5387;48.722;9.110;2022-10-16T12:23:31;24.60;99.90
10678;DHT22;5387;48.722;9.110;2022-10-16T12:26:01;24.70;99.90
10678;DHT22;5387;48.722;9.110;2022-10-16T12:28:29;24.70;99.90
10678;DHT22;5387;48.722;9.110;2022-10-16T12:30:58;24.80;99.90
10678;DHT22;5387;48.722;9.110;2022-10-16T12:33:28;24.50;99.90
10678;DHT22;5387;48.722;9.110;2022-10-16T12:35:56;24.30;99.90
10678;DHT22;5387;48.722;9.110;2022-10-16T12:38:26;24.10;99.90
10678;DHT22;5387;48.722;9.110;2022-10-16T12:41:00;24.00;99.90
10678;DHT22;5387;48.722;9.110;2022-10-16T12:43:36;23.80;99.90
10678;DHT22;5387;48.722;9.110;2022-10-16T12:46:19;23.90;99.90
10678;DHT22;5387;48.722;9.110;2022-10-16T12:48:47;23.80;99.90
10678;DHT22;5387;48.722;9.110;2022-10-16T12:51:23;23.60;99.90
10678;DHT22;5387;48.722;9.110;2022-10-16T12:53:58;23.50;99.90
10678;DHT22;5387;48.722;9.110;2022-10-16T12:56:36;23.30;99.90
10678;DHT22;5387;48.722;9.110;2022-10-16T12:59:13;23.00;99.90
10678;DHT22;5387;48.722;9.110;2022-10-16T13:01:56;22.80;99.90
10678;DHT22;5387;48.722;9.110;2022-10-16T13:04:45;22.80;99.90
10678;DHT22;5387;48.722;9.110;2022-10-16T13:07:30;22.70;99.90
10678;DHT22;5387;48.722;9.110;2022-10-16T13:10:12;22.50;99.90
10678;DHT22;5387;48.722;9.110;2022-10-16T13:13:06;22.70;99.90
10678;DHT22;5387;48.722;9.110;2022-10-16T13:15:47;22.70;99.90
10678;DHT22;5387;48.722;9.110;2022-10-16T13:18:22;22.70;99.90
10678;DHT22;5387;48.722;9.110;2022-10-16T13:21:02;22.60;99.90
10678;DHT22;5387;48.722;9.110;2022-10-16T13:23:38;22.50;99.90
10678;DHT22;5387;48.722;9.110;2022-10-16T13:26:15;22.40;99.90
10678;DHT22;5387;48.722;9.110;2022-10-16T13:28:45;22.50;99.90
10678;DHT22;5387;48.722;9.110;2022-10-16T13:31:16;22.50;99.90
10678;DHT22;5387;48.722;9.110;2022-10-16T13:33:46;22.60;99.90
10678;DHT22;5387;48.722;9.110;2022-10-16T13:36:19;22.70;99.90
10678;DHT22;5387;48.722;9.110;2022-10-16T13:38:47;22.70;99.90
10678;DHT22;5387;48.722;9.110;2022-10-16T13:41:15;22.80;99.90
10678;DHT22;5387;48.722;9.110;2022-10-16T13:43:45;22.70;99.90
10678;DHT22;5387;48.722;9.110;2022-10-16T13:46:14;22.80;99.90
10678;DHT22;5387;48.722;9.110;2022-10-16T13:48:42;22.80;99.90
10678;DHT22;5387;48.722;9.110;2022-10-16T13:51:12;23.00;99.90
10678;DHT22;5387;48.722;9.110;2022-10-16T13:53:40;23.20;99.90
10678;DHT22;5387;48.722;9.110;2022-10-16T13:56:11;23.00;99.90
10678;DHT22;5387;48.722;9.110;2022-10-16T13:58:38;22.80;99.90
10678;DHT22;5387;48.722;9.110;2022-10-16T14:01:15;22.70;99.90
10678;DHT22;5387;48.722;9.110;2022-10-16T14:03:43;22.70;99.90
10678;DHT22;5387;48.722;9.110;2022-10-16T14:06:13;22.50;99.90
10678;DHT22;5387;48.722;9.110;2022-10-16T14:08:44;22.60;99.90
10678;DHT22;5387;48.722;9.110;2022-10-16T14:11:12;22.70;99.90
10678;DHT22;5387;48.722;9.110;2022-10-16T14:13:42;23.00;99.90
10678;DHT22;5387;48.722;9.110;2022-10-16T14:16:17;23.30;99.90
10678;DHT22;5387;48.722;9.110;2022-10-16T14:18:47;23.20;99.90
10678;DHT22;5387;48.722;9.110;2022-10-16T14:21:17;23.00;99.90
10678;DHT22;5387;48.722;9.110;2022-10-16T14:23:45;23.10;99.90
10678;DHT22;5387;48.722;9.110;2022-10-16T14:26:13;23.00;99.90
10678;DHT22;5387;48.722;9.110;2022-10-16T14:28:41;23.00;99.90
10678;DHT22;5387;48.722;9.110;2022-10-16T14:31:28;23.20;99.90
10678;DHT22;5387;48.722;9.110;2022-10-16T14:33:55;23.20;99.90
10678;DHT22;5387;48.722;9.110;2022-10-16T14:36:22;23.10;99.90
10678;DHT22;5387;48.722;9.110;2022-10-16T14:38:59;23.10;99.90
10678;DHT22;5387;48.722;9.110;2022-10-16T14:41:28;23.20;99.90
10678;DHT22;5387;48.722;9.110;2022-10-16T14:43:56;23.10;99.90
10678;DHT22;5387;48.722;9.110;2022-10-16T14:46:33;23.00;99.90
10678;DHT22;5387;48.722;9.110;2022-10-16T14:49:05;22.80;99.90
10678;DHT22;5387;48.722;9.110;2022-10-16T14:51:38;22.70;99.90
10678;DHT22;5387;48.722;9.110;2022-10-16T14:54:08;22.70;99.90
10678;DHT22;5387;48.722;9.110;2022-10-16T14:56:43;22.60;99.90
10678;DHT22;5387;48.722;9.110;2022-10-16T14:59:16;22.40;99.90
10678;DHT22;5387;48.722;9.110;2022-10-16T15:01:45;22.40;99.90
10678;DHT22;5387;48.722;9.110;2022-10-16T15:04:13;22.50;99.90
10678;DHT22;5387;48.722;9.110;2022-10-16T15:06:41;22.50;99.90
10678;DHT22;5387;48.722;9.110;2022-10-16T15:09:08;22.50;99.90
10678;DHT22;5387;48.722;9.110;2022-10-16T15:11:35;22.40;99.90
10678;DHT22;5387;48.722;9.110;2022-10-16T15:14:02;22.20;99.90
10678;DHT22;5387;48.722;9.110;2022-10-16T15:16:30;22.10;99.90
10678;DHT22;5387;48.722;9.110;2022-10-16T15:18:58;22.00;99.90
10678;DHT22;5387;48.722;9.110;2022-10-16T15:21:28;21.90;99.90
10678;DHT22;5387;48.722;9.110;2022-10-16T15:23:55;21.80;99.90
10678;DHT22;5387;48.722;9.110;2022-10-16T15:26:23;21.70;99.90
10678;DHT22;5387;48.722;9.110;2022-10-16T15:28:50;21.70;99.90
10678;DHT22;5387;48.722;9.110;2022-10-16T15:31:17;21.70;99.90
10678;DHT22;5387;48.722;9.110;2022-10-16T15:33:44;21.60;99.90
10678;DHT22;5387;48.722;9.110;2022-10-16T15:36:23;21.50;99.90
10678;DHT22;5387;48.722;9.110;2022-10-16T15:38:50;21.50;99.90
10678;DHT22;5387;48.722;9.110;2022-10-16T15:41:18;21.50;99.90
10678;DHT22;5387;48.722;9.110;2022-10-16T15:43:47;21.40;99.90
10678;DHT22;5387;48.722;9.110;2022-10-16T15:46:15;21.30;99.90
10678;DHT22;5387;48.722;9.110;2022-10-16T15:48:42;21.20;99.90
10678;DHT22;5387;48.722;9.110;2022-10-16T15:51:09;21.00;99.90
10678;DHT22;5387;48.722;9.110;2022-10-16T15:53:37;20.80;99.90
10678;DHT22;5387;48.722;9.110;2022-10-16T15:56:04;20.80;99.90
10678;DHT22;5387;48.722;9.110;2022-10-16T15:58:31;20.60;99.90
10678;DHT22;5387;48.722;9.110;2022-10-16T16:00:59;20.50;99.90
10678;DHT22;5387;48.722;9.110;2022-10-16T16:03:27;20.30;99.90
10678;DHT22;5387;48.722;9.110;2022-10-16T16:05:54;20.10;99.90
10678;DHT22;5387;48.722;9.110;2022-10-16T16:08:21;19.90;99.90
10678;DHT22;5387;48.722;9.110;2022-10-16T16:10:58;19.80;99.90